Hlavní strana
METAR-TAF:

METAR-TAF

Letiště :

Port Moresby, Papua-Nová Guinea

zeměpisná šířka: 09-26S, zeměpisná délka: 147-13E, výška: 38 m

Aktuální stav počasí

Zpráva byla vytvořena před 22 minutami, v 03:00 UTC
Jihojihozápadní vítr 10 kt
Teplota 32°C
Vlhkost vzduchu 67%
Tlak 1006 hPa
Viditelnost 10 km a více
Skoro jasno ve výšce 3000 ft
Polojasno ve výšce 5000 ft

METAR: AYPY 210300Z 21010KT 9999 FEW030 SCT050 32/25 Q1006

Čas: 13:22 (03:22 UTC)

Předpověď počasí

Zpráva byla vytvořena před 4 hodinami a 52 minutami, v 22:30 UTC
Předpověď platná od 21 v 00 UTC do 21 v 24 UTC
Severoseverozápadní vítr 7 kt
Viditelnost 10 km a více
Polojasno ve výšce 1800 ft
Polojasno ve výšce 14000 ft
Od 21 v 0400 UTC
Jihojihozápadní vítr 8 kt
Viditelnost 10 km a více
Polojasno ve výšce 1600 ft
Oblačno až skoro zataženo ve výšce 12000 ft
slabé dešťové přeháňky

TAF: AYPY 202230Z 2100/2124 34007KT 9999 SCT018 SCT140 FM210400 20008KT 9999 -SHRA SCT016 BKN120

Stav a předpovědi počasí z více než 4 000 letišť (zprávy METAR a TAF).

Červené a žluté tečky na mapě představují dostupné meteorologické stanice.

Když kurzor umístíte na tečku, zobrazí se název stanice.

Pak kliknutím zobrazíte stav a předpověď počasí.

Chcete-li změnit mapu, kliknutím na zelené tlačítko se znaménkem +mapu přiblížíte, kliknutím na zelené tlačítko se znaménkem – mapu oddálíte a kliknutím na zelené šipky přejdete na sousední mapy.


METAR-TAF: